Time;durP1;ratioP1;P1;durP2;ratioP2;P2;SDS_P1;SDS_P2;PMS_P1;PMS_P2;Temp;Humidity;BMP_temperature;BMP_pressure;BME280_temperature;BME280_humidity;BME280_pressure;Samples;Min_cycle;Max_cycle;Signal;HPM_P1;HPM_P2
2024/01/28 00:00:19;;;;;;;2.17;1.92;;;;;;;;;;5018393;28;20473;-71
2024/01/28 00:02:45;;;;;;;3.42;2.45;;;;;;;;;;5010710;28;20057;-72
2024/01/28 00:05:15;;;;;;;3.63;1.98;;;;;;;;;;5024972;28;20045;-72
2024/01/28 00:07:41;;;;;;;3.03;2.33;;;;;;;;;;5026669;28;20081;-72
2024/01/28 00:10:08;;;;;;;4.63;2.88;;;;;;;;;;5026023;28;20056;-72
2024/01/28 00:12:34;;;;;;;3.67;2.75;;;;;;;;;;5018572;28;20037;-71
2024/01/28 00:15:00;;;;;;;3.35;2.72;;;;;;;;;;5012385;28;20938;-72
2024/01/28 00:17:26;;;;;;;4.97;2.70;;;;;;;;;;5025665;28;20052;-72
2024/01/28 00:19:52;;;;;;;4.60;2.47;;;;;;;;;;5023011;28;20476;-72
2024/01/28 00:22:18;;;;;;;5.68;2.83;;;;;;;;;;5018827;28;20050;-72
2024/01/28 00:24:44;;;;;;;5.35;3.50;;;;;;;;;;5025014;28;20057;-72
2024/01/28 00:27:10;;;;;;;6.13;3.50;;;;;;;;;;5017520;28;20054;-73
2024/01/28 00:29:36;;;;;;;4.57;2.80;;;;;;;;;;5014197;28;20153;-71
2024/01/28 00:32:02;;;;;;;5.20;2.70;;;;;;;;;;5014165;28;20426;-72
2024/01/28 00:34:28;;;;;;;4.05;2.88;;;;;;;;;;5015712;28;20136;-71
2024/01/28 00:36:54;;;;;;;4.35;2.33;;;;;;;;;;5016906;28;20128;-71
2024/01/28 00:39:21;;;;;;;4.10;3.08;;;;;;;;;;5017138;28;20127;-72
2024/01/28 00:41:47;;;;;;;5.45;2.70;;;;;;;;;;5014498;28;20050;-71
2024/01/28 00:44:13;;;;;;;3.70;2.47;;;;;;;;;;5013381;28;20535;-71
2024/01/28 00:46:39;;;;;;;2.50;1.80;;;;;;;;;;5015405;28;20046;-74
2024/01/28 00:49:05;;;;;;;2.35;1.77;;;;;;;;;;5017839;28;20131;-72
2024/01/28 00:51:31;;;;;;;3.83;2.53;;;;;;;;;;5016591;28;20042;-71
2024/01/28 00:53:57;;;;;;;3.08;2.08;;;;;;;;;;5014491;28;20085;-72
2024/01/28 00:56:23;;;;;;;2.97;2.55;;;;;;;;;;5015173;28;20077;-72
2024/01/28 00:58:49;;;;;;;3.22;1.92;;;;;;;;;;5013692;28;20084;-72
2024/01/28 01:01:16;;;;;;;4.78;2.42;;;;;;;;;;5016582;28;20107;-72
2024/01/28 01:03:42;;;;;;;4.00;3.08;;;;;;;;;;5016712;28;20053;-72
2024/01/28 01:06:09;;;;;;;8.63;3.33;;;;;;;;;;5014015;28;20053;-74
2024/01/28 01:08:35;;;;;;;4.45;3.30;;;;;;;;;;5014557;28;20049;-71
2024/01/28 01:11:03;;;;;;;5.93;2.90;;;;;;;;;;5014588;28;20054;-72
2024/01/28 01:13:32;;;;;;;4.20;2.92;;;;;;;;;;5016188;28;20049;-72
2024/01/28 01:15:59;;;;;;;2.45;2.25;;;;;;;;;;5017085;28;20111;-72
2024/01/28 01:18:25;;;;;;;4.63;2.53;;;;;;;;;;5014788;28;20127;-72
2024/01/28 01:20:51;;;;;;;3.03;2.50;;;;;;;;;;5017366;28;20049;-72
2024/01/28 01:23:17;;;;;;;2.90;2.60;;;;;;;;;;5016505;28;20056;-72
2024/01/28 01:25:43;;;;;;;4.90;2.72;;;;;;;;;;5015301;28;20058;-72
2024/01/28 01:28:10;;;;;;;4.20;2.92;;;;;;;;;;5016212;28;20049;-73
2024/01/28 01:30:36;;;;;;;4.38;2.95;;;;;;;;;;5015691;28;20049;-72
2024/01/28 01:33:02;;;;;;;4.22;2.35;;;;;;;;;;5014073;28;20045;-70
2024/01/28 01:35:28;;;;;;;4.80;3.00;;;;;;;;;;5023335;28;20095;-70
2024/01/28 01:37:54;;;;;;;6.57;3.03;;;;;;;;;;5024285;28;20384;-70
2024/01/28 01:40:21;;;;;;;7.30;2.88;;;;;;;;;;5016325;28;20056;-70
2024/01/28 01:42:47;;;;;;;3.47;2.97;;;;;;;;;;5015610;28;20057;-69
2024/01/28 01:45:13;;;;;;;3.38;2.47;;;;;;;;;;5021033;28;20041;-70
2024/01/28 01:47:40;;;;;;;4.05;2.67;;;;;;;;;;5025222;28;20052;-71
2024/01/28 01:50:10;;;;;;;5.25;3.05;;;;;;;;;;5022256;28;20042;-69
2024/01/28 01:52:37;;;;;;;2.92;2.35;;;;;;;;;;5021622;28;20041;-70
2024/01/28 01:55:03;;;;;;;2.45;2.00;;;;;;;;;;5022049;28;20049;-70
2024/01/28 01:57:29;;;;;;;4.18;2.20;;;;;;;;;;5024276;28;20249;-70
2024/01/28 01:59:56;;;;;;;4.15;2.55;;;;;;;;;;5022763;28;20056;-69
2024/01/28 02:02:22;;;;;;;3.67;2.67;;;;;;;;;;5016768;28;20425;-70
2024/01/28 02:04:49;;;;;;;2.80;1.90;;;;;;;;;;5015612;28;20057;-69
2024/01/28 02:07:15;;;;;;;2.85;2.30;;;;;;;;;;5015362;28;20122;-69
2024/01/28 02:09:41;;;;;;;3.33;2.40;;;;;;;;;;5018662;28;20049;-70
2024/01/28 02:12:07;;;;;;;4.97;3.13;;;;;;;;;;5014333;28;20061;-70
2024/01/28 02:14:33;;;;;;;4.32;2.88;;;;;;;;;;5015564;28;20484;-70
2024/01/28 02:16:59;;;;;;;3.85;2.78;;;;;;;;;;5015157;28;20046;-70
2024/01/28 02:19:28;;;;;;;3.70;2.90;;;;;;;;;;5014079;28;20092;-70
2024/01/28 02:21:54;;;;;;;3.13;2.65;;;;;;;;;;5013430;28;20046;-69
2024/01/28 02:24:20;;;;;;;4.22;2.92;;;;;;;;;;5012507;28;20057;-70
2024/01/28 02:26:46;;;;;;;5.07;2.97;;;;;;;;;;5016594;28;20037;-70
2024/01/28 02:29:12;;;;;;;7.30;3.10;;;;;;;;;;5014641;28;20052;-70
2024/01/28 02:31:38;;;;;;;5.50;2.85;;;;;;;;;;5012951;28;20123;-69
2024/01/28 02:34:05;;;;;;;4.93;2.38;;;;;;;;;;5012081;28;20046;-70
2024/01/28 02:36:31;;;;;;;4.25;2.65;;;;;;;;;;5012788;28;20054;-70
2024/01/28 02:38:58;;;;;;;3.45;2.50;;;;;;;;;;5016596;28;20073;-70
2024/01/28 02:41:25;;;;;;;3.33;2.55;;;;;;;;;;5015170;28;20143;-70
2024/01/28 02:43:53;;;;;;;6.15;2.88;;;;;;;;;;5013175;28;20492;-70
2024/01/28 02:46:19;;;;;;;3.08;2.63;;;;;;;;;;5012015;28;20050;-70
2024/01/28 02:48:45;;;;;;;3.90;2.92;;;;;;;;;;5013650;28;20453;-70
2024/01/28 02:51:11;;;;;;;3.30;2.63;;;;;;;;;;5014498;28;20509;-71
2024/01/28 02:53:37;;;;;;;4.00;3.00;;;;;;;;;;5015667;28;20138;-70
2024/01/28 02:56:03;;;;;;;5.43;2.58;;;;;;;;;;5011902;28;20647;-70
2024/01/28 02:58:31;;;;;;;4.72;3.17;;;;;;;;;;5011027;28;20037;-70
2024/01/28 03:00:57;;;;;;;5.45;3.70;;;;;;;;;;5013203;28;20046;-70
2024/01/28 03:03:23;;;;;;;5.72;3.47;;;;;;;;;;5014948;28;20727;-70
2024/01/28 03:05:49;;;;;;;5.88;4.75;;;;;;;;;;5014012;28;20057;-69
2024/01/28 03:08:15;;;;;;;9.30;5.85;;;;;;;;;;5012070;28;20046;-70
2024/01/28 03:10:41;;;;;;;8.93;6.03;;;;;;;;;;5013232;28;20541;-70
2024/01/28 03:13:07;;;;;;;6.95;4.32;;;;;;;;;;5012882;28;20050;-70
2024/01/28 03:15:33;;;;;;;5.45;4.68;;;;;;;;;;5016039;28;20052;-70
2024/01/28 03:17:59;;;;;;;5.88;4.68;;;;;;;;;;5016099;28;20048;-70
2024/01/28 03:20:26;;;;;;;8.50;5.40;;;;;;;;;;5012728;28;20135;-70
2024/01/28 03:22:52;;;;;;;8.27;5.35;;;;;;;;;;5011636;28;20133;-70
2024/01/28 03:25:18;;;;;;;7.35;5.72;;;;;;;;;;5012147;28;20058;-70
2024/01/28 03:27:44;;;;;;;8.27;5.82;;;;;;;;;;5014776;28;20099;-70
2024/01/28 03:30:10;;;;;;;7.53;5.18;;;;;;;;;;5015411;28;20508;-70
2024/01/28 03:32:36;;;;;;;5.47;4.30;;;;;;;;;;5012546;28;20084;-70
2024/01/28 03:35:03;;;;;;;7.30;5.15;;;;;;;;;;5011785;28;20046;-70
2024/01/28 03:37:29;;;;;;;8.80;5.32;;;;;;;;;;5013490;28;20069;-69
2024/01/28 03:39:55;;;;;;;6.95;5.15;;;;;;;;;;5016857;28;20671;-70
2024/01/28 03:42:22;;;;;;;5.82;4.40;;;;;;;;;;5019555;28;20037;-70
2024/01/28 03:44:48;;;;;;;9.95;5.28;;;;;;;;;;5015719;28;20053;-70
2024/01/28 03:47:14;;;;;;;4.82;4.03;;;;;;;;;;5014487;28;20137;-70
2024/01/28 03:49:40;;;;;;;6.47;4.57;;;;;;;;;;5017624;28;20060;-70
2024/01/28 03:52:06;;;;;;;8.25;5.03;;;;;;;;;;5018891;28;20129;-70
2024/01/28 03:54:32;;;;;;;6.70;4.93;;;;;;;;;;5017539;28;20045;-70
2024/01/28 03:56:58;;;;;;;5.38;4.25;;;;;;;;;;5015737;28;20072;-70
2024/01/28 03:59:24;;;;;;;5.07;3.70;;;;;;;;;;5017226;28;20080;-70
2024/01/28 04:01:50;;;;;;;6.50;4.35;;;;;;;;;;5018583;28;20132;-70
2024/01/28 04:04:16;;;;;;;5.35;4.13;;;;;;;;;;5017844;28;20475;-70
2024/01/28 04:06:45;;;;;;;4.78;3.50;;;;;;;;;;5017919;28;20128;-70
2024/01/28 04:09:12;;;;;;;3.88;3.05;;;;;;;;;;5015071;28;20496;-71
2024/01/28 04:11:38;;;;;;;5.68;4.00;;;;;;;;;;5015404;28;20042;-70
2024/01/28 04:14:04;;;;;;;4.30;3.03;;;;;;;;;;5015526;28;20062;-70
2024/01/28 04:16:32;;;;;;;4.68;3.42;;;;;;;;;;5020231;28;20050;-69
2024/01/28 04:18:58;;;;;;;4.15;2.72;;;;;;;;;;5016932;28;20061;-70
2024/01/28 04:21:24;;;;;;;4.97;2.95;;;;;;;;;;5017432;28;20045;-70
2024/01/28 04:23:51;;;;;;;3.75;2.65;;;;;;;;;;5016033;28;20698;-70
2024/01/28 04:26:18;;;;;;;6.68;2.97;;;;;;;;;;5016309;28;20536;-70
2024/01/28 04:28:46;;;;;;;3.83;2.88;;;;;;;;;;5015987;28;20513;-69
2024/01/28 04:31:13;;;;;;;5.57;3.63;;;;;;;;;;5016136;28;20053;-71
2024/01/28 04:33:41;;;;;;;5.72;4.18;;;;;;;;;;5017592;28;20108;-70
2024/01/28 04:36:07;;;;;;;7.97;3.28;;;;;;;;;;5016623;28;20053;-70
2024/01/28 04:38:36;;;;;;;4.13;2.80;;;;;;;;;;5014523;28;20045;-69
2024/01/28 04:41:02;;;;;;;7.13;3.08;;;;;;;;;;5014039;28;20058;-70
2024/01/28 04:43:30;;;;;;;5.03;3.30;;;;;;;;;;5016020;28;20389;-70
2024/01/28 04:45:56;;;;;;;2.65;2.45;;;;;;;;;;5018511;28;20766;-70
2024/01/28 04:48:22;;;;;;;2.78;2.10;;;;;;;;;;5017562;28;20127;-70
2024/01/28 04:50:48;;;;;;;2.78;2.30;;;;;;;;;;5013115;28;20030;-69
2024/01/28 04:53:14;;;;;;;1.92;1.83;;;;;;;;;;5014968;28;20562;-70
2024/01/28 04:55:40;;;;;;;3.00;1.88;;;;;;;;;;5016628;28;20053;-70
2024/01/28 04:58:06;;;;;;;2.15;1.70;;;;;;;;;;5016461;28;20041;-70
2024/01/28 05:00:32;;;;;;;3.45;2.65;;;;;;;;;;5016502;28;20755;-70
2024/01/28 05:02:58;;;;;;;2.88;2.00;;;;;;;;;;5014107;28;20054;-71
2024/01/28 05:05:24;;;;;;;2.58;1.92;;;;;;;;;;5012897;28;20444;-70
2024/01/28 05:07:50;;;;;;;2.55;1.85;;;;;;;;;;5015727;28;20053;-71
2024/01/28 05:10:16;;;;;;;5.38;2.20;;;;;;;;;;5016678;28;20219;-72
2024/01/28 05:12:45;;;;;;;3.55;2.13;;;;;;;;;;5016005;28;20671;-72
2024/01/28 05:15:16;;;;;;;4.75;2.67;;;;;;;;;;5014383;28;20477;-70
2024/01/28 05:17:42;;;;;;;2.45;2.17;;;;;;;;;;5013882;28;20045;-71
2024/01/28 05:20:11;;;;;;;3.33;2.13;;;;;;;;;;5015692;28;20050;-70
2024/01/28 05:22:37;;;;;;;2.53;2.22;;;;;;;;;;5016723;28;20056;-70
2024/01/28 05:25:04;;;;;;;3.22;2.70;;;;;;;;;;5014389;28;20139;-70
2024/01/28 05:27:30;;;;;;;3.22;2.30;;;;;;;;;;5013201;28;20050;-70
2024/01/28 05:29:58;;;;;;;2.95;1.65;;;;;;;;;;5013275;28;20501;-71
2024/01/28 05:32:28;;;;;;;2.55;2.15;;;;;;;;;;5015638;28;20061;-70
2024/01/28 05:34:57;;;;;;;1.92;1.83;;;;;;;;;;5017446;28;20053;-70
2024/01/28 05:37:23;;;;;;;1.90;1.67;;;;;;;;;;5014015;28;20133;-70
2024/01/28 05:39:49;;;;;;;2.60;1.92;;;;;;;;;;5012496;28;20073;-70
2024/01/28 05:42:15;;;;;;;1.83;1.73;;;;;;;;;;5013579;28;20064;-70
2024/01/28 05:44:42;;;;;;;1.92;1.70;;;;;;;;;;5016904;28;20136;-70
2024/01/28 05:47:08;;;;;;;1.73;1.63;;;;;;;;;;5017602;28;20143;-70
2024/01/28 05:49:34;;;;;;;1.73;1.63;;;;;;;;;;5013862;28;20050;-70
2024/01/28 05:52:00;;;;;;;2.55;1.42;;;;;;;;;;5012904;28;20056;-70
2024/01/28 05:54:26;;;;;;;1.92;1.73;;;;;;;;;;5012437;28;20061;-70
2024/01/28 05:56:52;;;;;;;2.35;1.70;;;;;;;;;;5016119;28;20049;-70
2024/01/28 05:59:18;;;;;;;1.83;1.70;;;;;;;;;;5015986;28;20048;-70
2024/01/28 06:01:44;;;;;;;3.17;2.38;;;;;;;;;;5013492;28;20500;-70
2024/01/28 06:04:10;;;;;;;2.15;1.80;;;;;;;;;;5021448;28;20061;-70
2024/01/28 06:06:36;;;;;;;2.10;1.85;;;;;;;;;;5023851;28;20060;-70
2024/01/28 06:09:04;;;;;;;3.78;1.60;;;;;;;;;;5023506;28;20045;-71
2024/01/28 06:11:30;;;;;;;2.20;2.00;;;;;;;;;;5017051;28;20045;-70
2024/01/28 06:13:56;;;;;;;1.90;1.50;;;;;;;;;;5019880;28;20167;-70
2024/01/28 06:16:22;;;;;;;2.28;2.08;;;;;;;;;;5014660;28;20562;-70
2024/01/28 06:18:48;;;;;;;3.53;2.65;;;;;;;;;;5015117;28;20072;-70
2024/01/28 06:21:14;;;;;;;5.88;3.58;;;;;;;;;;5011679;28;20133;-70
2024/01/28 06:23:44;;;;;;;5.45;3.35;;;;;;;;;;5012458;28;20503;-70
2024/01/28 06:26:10;;;;;;;4.82;3.40;;;;;;;;;;5014676;28;20049;-70
2024/01/28 06:28:36;;;;;;;4.35;3.22;;;;;;;;;;5014977;28;20055;-70
2024/01/28 06:31:02;;;;;;;4.68;3.30;;;;;;;;;;5014738;28;20045;-70
2024/01/28 06:33:28;;;;;;;3.53;2.60;;;;;;;;;;5012307;28;20076;-70
2024/01/28 06:35:54;;;;;;;4.60;2.85;;;;;;;;;;5011393;28;20061;-70
2024/01/28 06:38:20;;;;;;;3.08;2.67;;;;;;;;;;5013448;28;20053;-70
2024/01/28 06:40:46;;;;;;;4.72;2.50;;;;;;;;;;5015026;28;20125;-70
2024/01/28 06:43:12;;;;;;;3.30;2.08;;;;;;;;;;5014862;28;20037;-70
2024/01/28 06:45:38;;;;;;;2.85;2.28;;;;;;;;;;5012454;28;20133;-70
2024/01/28 06:48:04;;;;;;;2.25;1.98;;;;;;;;;;5012162;28;20536;-70
2024/01/28 06:50:31;;;;;;;2.35;2.15;;;;;;;;;;5013486;28;20096;-70
2024/01/28 06:53:01;;;;;;;2.95;1.98;;;;;;;;;;5015524;28;20514;-70
2024/01/28 06:55:27;;;;;;;2.33;2.08;;;;;;;;;;5014969;28;20060;-70
2024/01/28 06:57:53;;;;;;;3.10;1.98;;;;;;;;;;5011146;28;20611;-70
2024/01/28 07:00:19;;;;;;;2.72;2.38;;;;;;;;;;5011660;28;20065;-70
2024/01/28 07:02:46;;;;;;;2.25;2.05;;;;;;;;;;5013325;28;20112;-71
2024/01/28 07:05:12;;;;;;;2.63;2.08;;;;;;;;;;5014499;28;20508;-70
2024/01/28 07:07:39;;;;;;;2.42;2.03;;;;;;;;;;5016306;28;20045;-70
2024/01/28 07:10:05;;;;;;;2.15;1.95;;;;;;;;;;5011957;28;20522;-71
2024/01/28 07:12:31;;;;;;;2.90;2.03;;;;;;;;;;5011271;28;20050;-70
2024/01/28 07:14:58;;;;;;;2.13;1.88;;;;;;;;;;5016651;28;20136;-70
2024/01/28 07:17:24;;;;;;;5.55;2.75;;;;;;;;;;5023787;28;20045;-70
2024/01/28 07:19:50;;;;;;;2.75;2.00;;;;;;;;;;5026699;28;20088;-70
2024/01/28 07:22:16;;;;;;;2.92;2.38;;;;;;;;;;5027253;28;20081;-71
2024/01/28 07:24:42;;;;;;;2.15;1.95;;;;;;;;;;5022121;28;20050;-70
2024/01/28 07:27:08;;;;;;;2.30;2.10;;;;;;;;;;5023270;28;20046;-70
2024/01/28 07:29:34;;;;;;;1.92;1.70;;;;;;;;;;5022312;28;20886;-70
2024/01/28 07:32:00;;;;;;;2.80;1.83;;;;;;;;;;5016207;28;20045;-71
2024/01/28 07:34:26;;;;;;;2.97;1.63;;;;;;;;;;5019319;28;20056;-70
2024/01/28 07:36:54;;;;;;;2.38;2.05;;;;;;;;;;5016546;28;20128;-70
2024/01/28 07:39:20;;;;;;;2.67;2.35;;;;;;;;;;5013837;28;20049;-71
2024/01/28 07:41:46;;;;;;;4.32;3.10;;;;;;;;;;5016135;28;20558;-71
2024/01/28 07:44:12;;;;;;;4.63;2.80;;;;;;;;;;5018792;28;20038;-70
2024/01/28 07:46:38;;;;;;;3.75;2.30;;;;;;;;;;5021406;28;20052;-70
2024/01/28 07:49:04;;;;;;;4.47;2.97;;;;;;;;;;5019236;28;20099;-71
2024/01/28 07:51:30;;;;;;;8.40;4.03;;;;;;;;;;5021472;28;20057;-71
2024/01/28 07:53:56;;;;;;;6.15;4.00;;;;;;;;;;5016561;28;20402;-71
2024/01/28 07:56:22;;;;;;;7.45;4.32;;;;;;;;;;5020093;28;20045;-71
2024/01/28 07:58:49;;;;;;;10.10;4.63;;;;;;;;;;5021470;28;20061;-70
2024/01/28 08:01:14;;;;;;;7.22;4.90;;;;;;;;;;5017131;28;20052;-70
2024/01/28 08:03:40;;;;;;;9.13;4.53;;;;;;;;;;5023985;28;20061;-70
2024/01/28 08:06:07;;;;;;;7.32;4.00;;;;;;;;;;5018559;28;20037;-70
2024/01/28 08:08:33;;;;;;;9.43;4.40;;;;;;;;;;5020238;28;20078;-70
2024/01/28 08:11:00;;;;;;;5.60;4.43;;;;;;;;;;5020408;28;20412;-70
2024/01/28 08:13:26;;;;;;;8.90;4.57;;;;;;;;;;5021307;28;20052;-70
2024/01/28 08:15:54;;;;;;;4.57;3.90;;;;;;;;;;5020093;28;20037;-70
2024/01/28 08:18:20;;;;;;;8.05;4.95;;;;;;;;;;5023670;28;20048;-75
2024/01/28 08:20:46;;;;;;;7.15;3.67;;;;;;;;;;5018312;28;20069;-66
2024/01/28 08:23:12;;;;;;;4.82;3.45;;;;;;;;;;5021151;28;20096;-66
2024/01/28 08:25:38;;;;;;;5.03;3.40;;;;;;;;;;5020574;28;20136;-66
2024/01/28 08:28:04;;;;;;;4.18;3.40;;;;;;;;;;5017716;28;20157;-66
2024/01/28 08:30:31;;;;;;;5.68;3.17;;;;;;;;;;5019357;28;20084;-65
2024/01/28 08:32:56;;;;;;;3.92;2.88;;;;;;;;;;5017629;28;20049;-66
2024/01/28 08:35:23;;;;;;;4.45;3.08;;;;;;;;;;5024052;28;20108;-66
2024/01/28 08:37:49;;;;;;;7.18;3.45;;;;;;;;;;5023242;28;20044;-68
2024/01/28 08:40:15;;;;;;;5.13;3.35;;;;;;;;;;5024275;28;20245;-70
2024/01/28 08:42:41;;;;;;;5.20;3.97;;;;;;;;;;5015743;28;20061;-71
2024/01/28 08:45:07;;;;;;;5.25;3.63;;;;;;;;;;5027563;28;20045;-70
2024/01/28 08:47:33;;;;;;;5.10;3.17;;;;;;;;;;5026437;28;20439;-67
2024/01/28 08:49:59;;;;;;;3.88;3.17;;;;;;;;;;5015546;28;20328;-69
2024/01/28 08:52:25;;;;;;;6.85;3.80;;;;;;;;;;5025067;28;20230;-68
2024/01/28 08:54:51;;;;;;;5.57;3.97;;;;;;;;;;5023676;28;20045;-68
2024/01/28 08:57:18;;;;;;;7.90;4.97;;;;;;;;;;5013916;28;20096;-68
2024/01/28 08:59:44;;;;;;;9.32;5.22;;;;;;;;;;5023644;28;20050;-68
2024/01/28 09:02:10;;;;;;;6.97;4.85;;;;;;;;;;5022674;28;20291;-67
2024/01/28 09:04:36;;;;;;;5.80;4.30;;;;;;;;;;5020371;28;20507;-70
2024/01/28 09:07:02;;;;;;;6.40;3.88;;;;;;;;;;5023738;28;20129;-67
2024/01/28 09:09:28;;;;;;;5.75;4.22;;;;;;;;;;5026910;28;20065;-67
2024/01/28 09:11:54;;;;;;;7.50;4.43;;;;;;;;;;5014839;28;20042;-69
2024/01/28 09:14:20;;;;;;;7.50;4.05;;;;;;;;;;5014384;28;20068;-68
2024/01/28 09:16:47;;;;;;;6.22;4.10;;;;;;;;;;5012108;28;20578;-69
2024/01/28 09:19:13;;;;;;;6.22;4.10;;;;;;;;;;5018495;28;21523;-68
2024/01/28 09:21:39;;;;;;;8.63;4.70;;;;;;;;;;5017736;28;20107;-68
2024/01/28 09:24:05;;;;;;;7.15;4.20;;;;;;;;;;5015349;28;20057;-68
2024/01/28 09:26:31;;;;;;;6.03;4.03;;;;;;;;;;5029790;28;20056;-68
2024/01/28 09:28:57;;;;;;;8.25;4.93;;;;;;;;;;5015486;28;20657;-68
2024/01/28 09:31:23;;;;;;;7.00;4.95;;;;;;;;;;5018311;28;20502;-68
2024/01/28 09:33:49;;;;;;;9.35;5.22;;;;;;;;;;5021576;28;20111;-68
2024/01/28 09:36:16;;;;;;;5.60;3.88;;;;;;;;;;5020484;28;20053;-68
2024/01/28 09:38:42;;;;;;;7.82;4.72;;;;;;;;;;5017857;28;20049;-68
2024/01/28 09:41:32;;;;;;;8.07;6.07;;;;;;;;;;5014830;28;20046;-68
2024/01/28 09:43:58;;;;;;;10.13;5.78;;;;;;;;;;5023284;28;20107;-68
2024/01/28 09:46:25;;;;;;;8.85;5.68;;;;;;;;;;5018015;28;20107;-68
2024/01/28 09:48:51;;;;;;;8.85;5.82;;;;;;;;;;5022692;28;20485;-68
2024/01/28 09:51:22;;;;;;;11.55;5.80;;;;;;;;;;5016792;28;20041;-68
2024/01/28 09:53:48;;;;;;;8.82;6.00;;;;;;;;;;5018344;28;20077;-65
2024/01/28 09:56:16;;;;;;;8.40;5.00;;;;;;;;;;5020864;28;20519;-67
2024/01/28 09:58:44;;;;;;;9.63;5.88;;;;;;;;;;5020734;28;20536;-67
2024/01/28 10:01:11;;;;;;;7.20;5.00;;;;;;;;;;5015610;28;20041;-67
2024/01/28 10:03:37;;;;;;;9.70;4.93;;;;;;;;;;5014034;28;20526;-67
2024/01/28 10:06:04;;;;;;;6.82;4.55;;;;;;;;;;5017392;28;20064;-67
2024/01/28 10:08:31;;;;;;;7.07;4.35;;;;;;;;;;5020448;28;20076;-67
2024/01/28 10:10:57;;;;;;;5.63;4.25;;;;;;;;;;5017388;28;20041;-66
2024/01/28 10:13:23;;;;;;;4.95;4.35;;;;;;;;;;5014032;28;20041;-68
2024/01/28 10:15:59;;;;;;;8.43;4.30;;;;;;;;;;5017068;28;20060;-67
2024/01/28 10:18:25;;;;;;;6.82;4.28;;;;;;;;;;5013782;28;20100;-67
2024/01/28 10:20:52;;;;;;;6.47;3.80;;;;;;;;;;5015101;28;20045;-68
2024/01/28 10:23:18;;;;;;;5.80;4.10;;;;;;;;;;5016460;28;20053;-66
2024/01/28 10:25:50;;;;;;;5.43;4.15;;;;;;;;;;5017706;28;20045;-67
2024/01/28 10:28:20;;;;;;;5.95;4.30;;;;;;;;;;5017881;28;20052;-69
2024/01/28 10:30:50;;;;;;;5.80;4.15;;;;;;;;;;5019392;28;20061;-68
2024/01/28 10:33:16;;;;;;;5.53;3.67;;;;;;;;;;5018394;28;20045;-68
2024/01/28 10:35:43;;;;;;;3.63;2.97;;;;;;;;;;5017979;28;20052;-68
2024/01/28 10:38:15;;;;;;;7.38;3.72;;;;;;;;;;5019015;28;20045;-68
2024/01/28 10:40:43;;;;;;;6.43;3.45;;;;;;;;;;5019687;28;20060;-68
2024/01/28 10:43:12;;;;;;;8.13;3.30;;;;;;;;;;5017824;28;20065;-68
2024/01/28 10:45:44;;;;;;;8.57;3.70;;;;;;;;;;5019932;28;20049;-67
2024/01/28 10:48:12;;;;;;;5.03;3.25;;;;;;;;;;5020707;28;20041;-68
2024/01/28 10:50:39;;;;;;;5.10;3.53;;;;;;;;;;5027883;28;20053;-67
2024/01/28 10:53:06;;;;;;;4.93;3.22;;;;;;;;;;5011112;28;20143;-68
2024/01/28 10:55:33;;;;;;;5.72;3.20;;;;;;;;;;5012687;28;20056;-67
2024/01/28 10:58:00;;;;;;;9.10;4.05;;;;;;;;;;5026868;28;20108;-68
2024/01/28 11:00:28;;;;;;;8.65;3.63;;;;;;;;;;5012158;28;20057;-68
2024/01/28 11:02:56;;;;;;;4.07;2.40;;;;;;;;;;5015163;28;20401;-68
2024/01/28 11:05:23;;;;;;;3.47;2.65;;;;;;;;;;5016662;28;20052;-68
2024/01/28 11:07:49;;;;;;;5.50;3.10;;;;;;;;;;5009134;28;20060;-67
2024/01/28 11:10:16;;;;;;;5.38;2.85;;;;;;;;;;5018948;28;20052;-67
2024/01/28 11:12:42;;;;;;;6.20;3.13;;;;;;;;;;5017258;28;20482;-68
2024/01/28 11:15:14;;;;;;;4.38;2.42;;;;;;;;;;5015943;28;20119;-67
2024/01/28 11:17:40;;;;;;;5.03;2.50;;;;;;;;;;5012527;28;20046;-67
2024/01/28 11:20:17;;;;;;;5.22;2.70;;;;;;;;;;5017435;28;20356;-66
2024/01/28 11:22:47;;;;;;;3.50;2.45;;;;;;;;;;5019924;28;20061;-66
2024/01/28 11:25:16;;;;;;;5.68;2.72;;;;;;;;;;5011673;28;20192;-68
2024/01/28 11:27:42;;;;;;;3.67;2.80;;;;;;;;;;5010503;28;20057;-67
2024/01/28 11:30:10;;;;;;;3.80;3.45;;;;;;;;;;4994349;28;20042;-68
2024/01/28 11:32:36;;;;;;;6.57;4.18;;;;;;;;;;4984010;28;20434;-68
2024/01/28 11:35:03;;;;;;;4.03;3.10;;;;;;;;;;5009447;28;20044;-68
2024/01/28 11:37:30;;;;;;;8.38;3.15;;;;;;;;;;5008331;28;20054;-69
2024/01/28 11:40:05;;;;;;;3.95;2.25;;;;;;;;;;4993297;28;20046;-68
2024/01/28 11:42:31;;;;;;;3.95;2.60;;;;;;;;;;4990579;28;20065;-67
2024/01/28 11:44:57;;;;;;;3.67;2.28;;;;;;;;;;4991369;28;20057;-67
2024/01/28 11:47:23;;;;;;;3.00;2.20;;;;;;;;;;4990495;28;20045;-66
2024/01/28 11:49:49;;;;;;;5.20;2.50;;;;;;;;;;5008195;28;20034;-67
2024/01/28 11:52:16;;;;;;;2.83;2.10;;;;;;;;;;4989417;28;20461;-66
2024/01/28 11:54:44;;;;;;;4.68;2.53;;;;;;;;;;5009644;28;20393;-66
2024/01/28 11:57:10;;;;;;;4.63;2.08;;;;;;;;;;5006647;28;20049;-66
2024/01/28 11:59:38;;;;;;;3.42;2.30;;;;;;;;;;4985456;28;20479;-65
2024/01/28 12:02:05;;;;;;;3.17;2.53;;;;;;;;;;5011015;28;20076;-67
2024/01/28 12:04:32;;;;;;;3.05;2.20;;;;;;;;;;4994663;28;20061;-66
2024/01/28 12:06:58;;;;;;;5.32;1.90;;;;;;;;;;5011010;28;20046;-67
2024/01/28 12:09:24;;;;;;;3.28;2.63;;;;;;;;;;4991748;28;20100;-66
2024/01/28 12:11:51;;;;;;;2.72;2.38;;;;;;;;;;4992167;28;20057;-66
2024/01/28 12:14:17;;;;;;;2.88;2.08;;;;;;;;;;4987857;28;20073;-67
2024/01/28 12:16:43;;;;;;;3.35;2.35;;;;;;;;;;4993822;28;20045;-66
2024/01/28 12:19:13;;;;;;;3.17;1.73;;;;;;;;;;4996160;28;20478;-67
2024/01/28 12:21:39;;;;;;;3.55;2.45;;;;;;;;;;4992496;28;20057;-66
2024/01/28 12:24:05;;;;;;;3.63;1.67;;;;;;;;;;5011341;28;20412;-66
2024/01/28 12:26:34;;;;;;;4.22;1.98;;;;;;;;;;4996857;28;20651;-66
2024/01/28 12:29:02;;;;;;;3.67;2.10;;;;;;;;;;4997292;28;20077;-68
2024/01/28 12:31:30;;;;;;;3.38;1.83;;;;;;;;;;5007287;28;20082;-66
2024/01/28 12:33:57;;;;;;;3.90;3.00;;;;;;;;;;4994049;28;20073;-66
2024/01/28 12:36:23;;;;;;;4.55;2.92;;;;;;;;;;5009348;28;20089;-66
2024/01/28 12:38:49;;;;;;;4.55;2.55;;;;;;;;;;5011549;28;20077;-65
2024/01/28 12:41:15;;;;;;;3.85;2.53;;;;;;;;;;5006523;28;20077;-65
2024/01/28 12:43:43;;;;;;;4.43;2.22;;;;;;;;;;4991698;28;20037;-65
2024/01/28 12:46:09;;;;;;;2.47;2.08;;;;;;;;;;4993073;28;20154;-63
2024/01/28 12:48:35;;;;;;;2.63;2.22;;;;;;;;;;5007627;28;20256;-67
2024/01/28 12:51:01;;;;;;;4.53;2.63;;;;;;;;;;4986819;28;20500;-66
2024/01/28 12:53:27;;;;;;;4.75;2.90;;;;;;;;;;5007889;28;20672;-66
2024/01/28 12:55:53;;;;;;;3.65;2.95;;;;;;;;;;4993693;28;20042;-69
2024/01/28 12:58:19;;;;;;;4.78;2.72;;;;;;;;;;5012551;28;20519;-64
2024/01/28 13:00:45;;;;;;;2.83;2.10;;;;;;;;;;5009366;28;20053;-66
2024/01/28 13:03:12;;;;;;;4.30;1.50;;;;;;;;;;4989313;28;20404;-67
2024/01/28 13:05:38;;;;;;;3.65;2.08;;;;;;;;;;5007928;28;20053;-69
2024/01/28 13:08:04;;;;;;;4.90;1.95;;;;;;;;;;4988915;28;20579;-66
2024/01/28 13:10:30;;;;;;;3.13;1.85;;;;;;;;;;5008732;28;20050;-67
2024/01/28 13:12:56;;;;;;;3.80;2.20;;;;;;;;;;5011603;28;20087;-67
2024/01/28 13:15:22;;;;;;;3.10;2.20;;;;;;;;;;4991683;28;20115;-68
2024/01/28 13:17:48;;;;;;;3.00;2.00;;;;;;;;;;5001862;28;20042;-68
2024/01/28 13:20:14;;;;;;;1.95;1.80;;;;;;;;;;5014359;28;20155;-66
2024/01/28 13:22:41;;;;;;;3.22;1.77;;;;;;;;;;5011983;28;20195;-67
2024/01/28 13:25:11;;;;;;;3.20;1.85;;;;;;;;;;5011183;28;20437;-67
2024/01/28 13:27:38;;;;;;;2.78;1.63;;;;;;;;;;4995864;28;20053;-67
2024/01/28 13:30:07;;;;;;;2.92;1.90;;;;;;;;;;4994127;28;20670;-67
2024/01/28 13:32:36;;;;;;;3.55;2.10;;;;;;;;;;4995342;28;20060;-68
2024/01/28 13:35:04;;;;;;;2.70;1.52;;;;;;;;;;5011399;28;20065;-69
2024/01/28 13:37:31;;;;;;;3.67;1.60;;;;;;;;;;4992674;28;20097;-68
2024/01/28 13:39:56;;;;;;;4.15;2.00;;;;;;;;;;5012791;28;20049;-66
2024/01/28 13:42:22;;;;;;;2.42;1.73;;;;;;;;;;5009772;28;20033;-67
2024/01/28 13:44:50;;;;;;;1.92;1.60;;;;;;;;;;5009438;28;20562;-68
2024/01/28 13:47:16;;;;;;;4.60;1.80;;;;;;;;;;4985210;28;20092;-71
2024/01/28 13:49:42;;;;;;;3.42;1.60;;;;;;;;;;5005171;28;20103;-67
2024/01/28 13:52:08;;;;;;;2.58;1.75;;;;;;;;;;4987687;28;20636;-67
2024/01/28 13:54:34;;;;;;;2.78;1.63;;;;;;;;;;5005786;28;20116;-68
2024/01/28 13:57:01;;;;;;;3.17;1.60;;;;;;;;;;5006293;28;20048;-69
2024/01/28 13:59:27;;;;;;;4.25;1.75;;;;;;;;;;5004976;28;20499;-66
2024/01/28 14:01:53;;;;;;;3.42;1.67;;;;;;;;;;5006388;28;20046;-66
2024/01/28 14:04:19;;;;;;;1.75;1.50;;;;;;;;;;5006407;28;20038;-67
2024/01/28 14:06:45;;;;;;;2.25;1.65;;;;;;;;;;5004240;28;20125;-67
2024/01/28 14:09:11;;;;;;;2.78;1.70;;;;;;;;;;4986604;28;20309;-68
2024/01/28 14:11:37;;;;;;;2.17;1.80;;;;;;;;;;4986759;28;20088;-69
2024/01/28 14:14:03;;;;;;;2.10;1.80;;;;;;;;;;4978229;28;20852;-68
2024/01/28 14:16:29;;;;;;;4.95;2.08;;;;;;;;;;4986646;28;20046;-67
2024/01/28 14:18:55;;;;;;;4.53;2.38;;;;;;;;;;5002915;28;20095;-68
2024/01/28 14:21:25;;;;;;;2.80;1.80;;;;;;;;;;5001788;28;20501;-68
2024/01/28 14:23:51;;;;;;;3.00;1.50;;;;;;;;;;4988948;28;20050;-68
2024/01/28 14:26:17;;;;;;;1.92;1.52;;;;;;;;;;5020210;28;20103;-68
2024/01/28 14:28:43;;;;;;;1.92;1.25;;;;;;;;;;5020427;28;20507;-68
2024/01/28 14:31:09;;;;;;;2.85;1.38;;;;;;;;;;5021353;28;20045;-68
2024/01/28 14:33:35;;;;;;;3.13;1.85;;;;;;;;;;5014522;28;20057;-68
2024/01/28 14:36:01;;;;;;;2.00;1.23;;;;;;;;;;5015098;28;20042;-68
2024/01/28 14:38:28;;;;;;;1.75;1.65;;;;;;;;;;5025419;28;20037;-68